Flugplatz Peine-Eddesse

Für EDVP sind keine METAR/TAF Berichte vorhanden.
Es werden die Flugwettermeldungen vom Flugplatz Braunschweig Wolfsburg in 23 km Entfernung angezeigt.

Bericht für EDVE

vom 09.03. um 06:50 UTC

Wind 3 kt aus 100°

Sichtweite 10 km oder mehr

gute Sicht, keine Wolken < 5000 ft, keine CB, keine Wettererscheinungen (CAVOK)

Temperatur 0.0°C

Taupunkt -3.0°C

Luftfeuchtigkeit 80%

Luftdruck 1018 hPa

EDVE 090650Z 10003KT CAVOK M00/M03 Q1018
Keine Prognose (TAF) verfügbar.
Impressum